Hlavní strana
METAR-TAF:

METAR-TAF

Letiště :

Gamvik, Norsko

zeměpisná šířka: 71-02N, zeměpisná délka: 027-50E, výška: 1 m

Aktuální stav počasí

Zpráva byla vytvořena před 16 minutami, v 16:50 UTC
Jihojihovýchodní vítr 7 kt
Teplota -2°C
Vlhkost vzduchu 86%
Tlak 963 hPa
Viditelnost 10 km a více
Oblačno až skoro zataženo ve výšce 2000 ft

METAR: ENMH 231650Z 16007KT 9999 BKN020 M02/M04 Q0963

Čas: 18:06 (17:06 UTC)


TAF: chybějící

Stav a předpovědi počasí z více než 4 000 letišť (zprávy METAR a TAF).

Červené a žluté tečky na mapě představují dostupné meteorologické stanice.

Když kurzor umístíte na tečku, zobrazí se název stanice.

Pak kliknutím zobrazíte stav a předpověď počasí.

Chcete-li změnit mapu, kliknutím na zelené tlačítko se znaménkem +mapu přiblížíte, kliknutím na zelené tlačítko se znaménkem – mapu oddálíte a kliknutím na zelené šipky přejdete na sousední mapy.


METAR-TAF: